sensor_id;sensor_type;location;lat;lon;timestamp;temperature;humidity
4429;DHT22;2227;47.810;8.810;2023-01-16T04:47:38;2.00;99.90
4429;DHT22;2227;47.810;8.810;2023-01-16T04:50:05;1.90;99.90
4429;DHT22;2227;47.810;8.810;2023-01-16T04:52:32;1.80;99.90
4429;DHT22;2227;47.810;8.810;2023-01-16T04:54:59;1.80;99.90
4429;DHT22;2227;47.810;8.810;2023-01-16T04:57:25;1.90;99.90
4429;DHT22;2227;47.810;8.810;2023-01-16T04:59:52;1.90;99.90
4429;DHT22;2227;47.810;8.810;2023-01-16T05:02:19;1.90;99.90
4429;DHT22;2227;47.810;8.810;2023-01-16T05:04:45;1.90;99.90
4429;DHT22;2227;47.810;8.810;2023-01-16T05:07:12;1.80;99.90
4429;DHT22;2227;47.810;8.810;2023-01-16T05:09:39;1.70;99.90
4429;DHT22;2227;47.810;8.810;2023-01-16T05:12:06;1.70;99.90
4429;DHT22;2227;47.810;8.810;2023-01-16T05:14:32;1.40;99.90
4429;DHT22;2227;47.810;8.810;2023-01-16T05:16:59;1.50;99.90
4429;DHT22;2227;47.810;8.810;2023-01-16T05:19:25;1.60;99.90
4429;DHT22;2227;47.810;8.810;2023-01-16T05:21:52;1.60;99.90
4429;DHT22;2227;47.810;8.810;2023-01-16T05:24:19;1.70;99.90
4429;DHT22;2227;47.810;8.810;2023-01-16T05:26:46;1.70;99.90
4429;DHT22;2227;47.810;8.810;2023-01-16T05:29:12;1.70;99.90
4429;DHT22;2227;47.810;8.810;2023-01-16T05:31:39;1.70;99.90
4429;DHT22;2227;47.810;8.810;2023-01-16T05:34:06;1.70;99.90
4429;DHT22;2227;47.810;8.810;2023-01-16T05:36:32;1.60;99.90
4429;DHT22;2227;47.810;8.810;2023-01-16T05:38:59;1.50;99.90
4429;DHT22;2227;47.810;8.810;2023-01-16T05:41:26;1.50;99.90
4429;DHT22;2227;47.810;8.810;2023-01-16T05:43:52;1.60;99.90
4429;DHT22;2227;47.810;8.810;2023-01-16T05:46:19;1.50;99.90
4429;DHT22;2227;47.810;8.810;2023-01-16T05:48:46;1.40;99.90
4429;DHT22;2227;47.810;8.810;2023-01-16T05:51:13;1.30;99.90
4429;DHT22;2227;47.810;8.810;2023-01-16T05:53:39;1.40;99.90
4429;DHT22;2227;47.810;8.810;2023-01-16T05:56:10;1.40;99.90
4429;DHT22;2227;47.810;8.810;2023-01-16T05:58:37;1.40;99.90
4429;DHT22;2227;47.810;8.810;2023-01-16T06:01:04;1.40;99.90
4429;DHT22;2227;47.810;8.810;2023-01-16T06:03:31;1.50;99.90
4429;DHT22;2227;47.810;8.810;2023-01-16T06:05:57;1.30;99.90
4429;DHT22;2227;47.810;8.810;2023-01-16T06:08:25;1.20;99.90
4429;DHT22;2227;47.810;8.810;2023-01-16T06:10:52;1.20;99.90
4429;DHT22;2227;47.810;8.810;2023-01-16T06:13:19;1.20;99.90
4429;DHT22;2227;47.810;8.810;2023-01-16T06:15:46;1.30;99.90
4429;DHT22;2227;47.810;8.810;2023-01-16T06:18:12;1.30;99.90
4429;DHT22;2227;47.810;8.810;2023-01-16T06:20:41;1.30;99.90
4429;DHT22;2227;47.810;8.810;2023-01-16T06:23:08;1.40;99.90
4429;DHT22;2227;47.810;8.810;2023-01-16T06:25:35;1.40;99.90
4429;DHT22;2227;47.810;8.810;2023-01-16T06:28:02;1.30;99.90
4429;DHT22;2227;47.810;8.810;2023-01-16T06:30:28;1.20;99.90
4429;DHT22;2227;47.810;8.810;2023-01-16T06:32:55;1.30;99.90
4429;DHT22;2227;47.810;8.810;2023-01-16T06:35:22;1.30;99.90
4429;DHT22;2227;47.810;8.810;2023-01-16T06:37:48;1.40;99.90
4429;DHT22;2227;47.810;8.810;2023-01-16T06:40:15;1.40;99.90
4429;DHT22;2227;47.810;8.810;2023-01-16T06:42:42;1.50;99.90
4429;DHT22;2227;47.810;8.810;2023-01-16T06:45:09;1.50;99.90
4429;DHT22;2227;47.810;8.810;2023-01-16T06:47:36;1.50;99.90
4429;DHT22;2227;47.810;8.810;2023-01-16T06:50:03;1.40;99.90
4429;DHT22;2227;47.810;8.810;2023-01-16T06:52:29;1.50;99.90
4429;DHT22;2227;47.810;8.810;2023-01-16T06:54:56;1.50;99.90
4429;DHT22;2227;47.810;8.810;2023-01-16T06:57:23;1.50;99.90
4429;DHT22;2227;47.810;8.810;2023-01-16T06:59:49;1.50;99.90
4429;DHT22;2227;47.810;8.810;2023-01-16T07:02:16;1.50;99.90
4429;DHT22;2227;47.810;8.810;2023-01-16T07:04:43;1.60;99.90
4429;DHT22;2227;47.810;8.810;2023-01-16T07:07:11;1.60;99.90
4429;DHT22;2227;47.810;8.810;2023-01-16T07:09:37;1.50;99.90
4429;DHT22;2227;47.810;8.810;2023-01-16T07:12:04;1.50;99.90
4429;DHT22;2227;47.810;8.810;2023-01-16T07:14:31;1.40;99.90
4429;DHT22;2227;47.810;8.810;2023-01-16T07:17:16;1.40;99.90
4429;DHT22;2227;47.810;8.810;2023-01-16T07:20:02;1.30;99.90
4429;DHT22;2227;47.810;8.810;2023-01-16T07:22:47;1.10;99.90
4429;DHT22;2227;47.810;8.810;2023-01-16T07:25:19;1.30;99.90
4429;DHT22;2227;47.810;8.810;2023-01-16T07:27:48;1.40;99.90
4429;DHT22;2227;47.810;8.810;2023-01-16T07:30:19;1.50;99.90
4429;DHT22;2227;47.810;8.810;2023-01-16T07:32:47;1.50;99.90
4429;DHT22;2227;47.810;8.810;2023-01-16T07:35:14;1.60;99.90
4429;DHT22;2227;47.810;8.810;2023-01-16T07:37:41;1.60;99.90
4429;DHT22;2227;47.810;8.810;2023-01-16T07:40:09;1.70;99.90
4429;DHT22;2227;47.810;8.810;2023-01-16T07:42:36;1.80;99.90
4429;DHT22;2227;47.810;8.810;2023-01-16T07:45:03;1.90;99.90
4429;DHT22;2227;47.810;8.810;2023-01-16T07:47:30;2.00;99.90
4429;DHT22;2227;47.810;8.810;2023-01-16T07:49:57;1.90;99.90
4429;DHT22;2227;47.810;8.810;2023-01-16T07:52:25;1.90;99.90
4429;DHT22;2227;47.810;8.810;2023-01-16T07:54:51;2.00;99.90
4429;DHT22;2227;47.810;8.810;2023-01-16T07:57:18;2.10;99.90
4429;DHT22;2227;47.810;8.810;2023-01-16T07:59:45;2.30;99.90
4429;DHT22;2227;47.810;8.810;2023-01-16T08:02:11;2.30;99.90
4429;DHT22;2227;47.810;8.810;2023-01-16T08:04:38;2.20;99.90
4429;DHT22;2227;47.810;8.810;2023-01-16T08:07:05;2.50;99.90
4429;DHT22;2227;47.810;8.810;2023-01-16T08:09:31;2.20;99.90
4429;DHT22;2227;47.810;8.810;2023-01-16T08:11:58;2.30;99.90
4429;DHT22;2227;47.810;8.810;2023-01-16T08:14:25;2.20;99.90
4429;DHT22;2227;47.810;8.810;2023-01-16T08:16:51;2.20;99.90
4429;DHT22;2227;47.810;8.810;2023-01-16T08:19:18;2.30;99.90
4429;DHT22;2227;47.810;8.810;2023-01-16T08:21:45;2.50;99.90
4429;DHT22;2227;47.810;8.810;2023-01-16T08:24:12;2.50;99.90
4429;DHT22;2227;47.810;8.810;2023-01-16T08:26:41;2.30;99.90
4429;DHT22;2227;47.810;8.810;2023-01-16T08:29:08;2.40;99.90
4429;DHT22;2227;47.810;8.810;2023-01-16T08:31:35;2.60;99.90
4429;DHT22;2227;47.810;8.810;2023-01-16T08:34:02;2.60;99.90
4429;DHT22;2227;47.810;8.810;2023-01-16T08:36:29;2.70;99.90
4429;DHT22;2227;47.810;8.810;2023-01-16T08:38:55;2.30;99.90
4429;DHT22;2227;47.810;8.810;2023-01-16T08:41:22;2.40;99.90
4429;DHT22;2227;47.810;8.810;2023-01-16T08:44:08;2.30;99.90
4429;DHT22;2227;47.810;8.810;2023-01-16T08:47:05;2.00;99.90
4429;DHT22;2227;47.810;8.810;2023-01-16T08:49:53;1.90;99.90
4429;DHT22;2227;47.810;8.810;2023-01-16T08:52:38;2.20;99.90
4429;DHT22;2227;47.810;8.810;2023-01-16T08:55:06;2.30;99.90
4429;DHT22;2227;47.810;8.810;2023-01-16T08:57:32;2.50;99.90
4429;DHT22;2227;47.810;8.810;2023-01-16T09:00:00;2.60;99.90
4429;DHT22;2227;47.810;8.810;2023-01-16T09:02:27;2.80;99.90
4429;DHT22;2227;47.810;8.810;2023-01-16T09:04:54;3.00;99.90
4429;DHT22;2227;47.810;8.810;2023-01-16T09:07:22;3.00;99.90
4429;DHT22;2227;47.810;8.810;2023-01-16T09:09:49;2.60;99.90
4429;DHT22;2227;47.810;8.810;2023-01-16T09:12:16;2.50;99.90
4429;DHT22;2227;47.810;8.810;2023-01-16T09:15:02;2.30;99.90
4429;DHT22;2227;47.810;8.810;2023-01-16T09:17:29;2.00;99.90
4429;DHT22;2227;47.810;8.810;2023-01-16T09:19:55;2.20;99.90
4429;DHT22;2227;47.810;8.810;2023-01-16T09:22:23;2.50;99.90
4429;DHT22;2227;47.810;8.810;2023-01-16T09:24:51;2.50;99.90
4429;DHT22;2227;47.810;8.810;2023-01-16T09:27:19;2.60;99.90
4429;DHT22;2227;47.810;8.810;2023-01-16T09:29:45;2.60;99.90
4429;DHT22;2227;47.810;8.810;2023-01-16T09:32:12;3.00;99.90
4429;DHT22;2227;47.810;8.810;2023-01-16T09:34:39;3.20;99.90
4429;DHT22;2227;47.810;8.810;2023-01-16T09:37:08;3.10;99.90
4429;DHT22;2227;47.810;8.810;2023-01-16T09:39:34;3.20;99.90
4429;DHT22;2227;47.810;8.810;2023-01-16T09:45:02;3.20;99.90
4429;DHT22;2227;47.810;8.810;2023-01-16T09:47:30;3.30;99.90
4429;DHT22;2227;47.810;8.810;2023-01-16T09:50:04;3.50;99.90
4429;DHT22;2227;47.810;8.810;2023-01-16T09:52:34;3.50;99.90
4429;DHT22;2227;47.810;8.810;2023-01-16T09:55:40;3.40;99.90
4429;DHT22;2227;47.810;8.810;2023-01-16T09:58:27;3.50;99.90
4429;DHT22;2227;47.810;8.810;2023-01-16T10:01:15;3.60;99.90
4429;DHT22;2227;47.810;8.810;2023-01-16T10:03:43;3.70;99.90
4429;DHT22;2227;47.810;8.810;2023-01-16T10:09:04;3.30;99.90
4429;DHT22;2227;47.810;8.810;2023-01-16T10:11:40;3.20;99.90
4429;DHT22;2227;47.810;8.810;2023-01-16T10:16:54;3.40;99.90
4429;DHT22;2227;47.810;8.810;2023-01-16T10:25:22;3.60;99.90
4429;DHT22;2227;47.810;8.810;2023-01-16T10:28:19;3.40;99.90
4429;DHT22;2227;47.810;8.810;2023-01-16T10:31:39;3.40;99.90
4429;DHT22;2227;47.810;8.810;2023-01-16T10:33:44;3.50;99.90
4429;DHT22;2227;47.810;8.810;2023-01-16T10:36:20;3.60;99.90
4429;DHT22;2227;47.810;8.810;2023-01-16T10:38:54;3.90;99.90
4429;DHT22;2227;47.810;8.810;2023-01-16T10:41:27;3.90;99.90
4429;DHT22;2227;47.810;8.810;2023-01-16T10:44:33;4.20;99.90
4429;DHT22;2227;47.810;8.810;2023-01-16T10:47:22;4.50;99.90
4429;DHT22;2227;47.810;8.810;2023-01-16T10:50:09;4.60;99.90
4429;DHT22;2227;47.810;8.810;2023-01-16T10:52:37;4.80;99.90
4429;DHT22;2227;47.810;8.810;2023-01-16T10:55:04;4.80;99.90
4429;DHT22;2227;47.810;8.810;2023-01-16T10:57:31;4.60;99.90
4429;DHT22;2227;47.810;8.810;2023-01-16T11:00:22;4.40;99.90
4429;DHT22;2227;47.810;8.810;2023-01-16T11:02:58;4.20;99.90
4429;DHT22;2227;47.810;8.810;2023-01-16T11:05:35;4.40;99.90
4429;DHT22;2227;47.810;8.810;2023-01-16T11:08:17;4.30;99.90
4429;DHT22;2227;47.810;8.810;2023-01-16T11:10:46;4.50;99.90
4429;DHT22;2227;47.810;8.810;2023-01-16T11:13:22;4.60;99.90
4429;DHT22;2227;47.810;8.810;2023-01-16T11:16:20;4.70;99.90
4429;DHT22;2227;47.810;8.810;2023-01-16T11:21:54;4.90;99.90
4429;DHT22;2227;47.810;8.810;2023-01-16T11:24:30;5.00;99.90
4429;DHT22;2227;47.810;8.810;2023-01-16T11:26:59;4.80;99.90
4429;DHT22;2227;47.810;8.810;2023-01-16T11:29:28;4.60;99.90
4429;DHT22;2227;47.810;8.810;2023-01-16T11:32:06;4.40;99.90
4429;DHT22;2227;47.810;8.810;2023-01-16T11:34:42;4.50;99.90
4429;DHT22;2227;47.810;8.810;2023-01-16T11:37:12;4.50;99.90
4429;DHT22;2227;47.810;8.810;2023-01-16T11:39:40;4.50;99.90
4429;DHT22;2227;47.810;8.810;2023-01-16T11:42:11;4.50;99.90
4429;DHT22;2227;47.810;8.810;2023-01-16T11:44:58;4.60;99.90
4429;DHT22;2227;47.810;8.810;2023-01-16T11:47:50;4.70;99.90
4429;DHT22;2227;47.810;8.810;2023-01-16T11:50:39;4.90;99.90
4429;DHT22;2227;47.810;8.810;2023-01-16T11:53:08;5.00;99.90
4429;DHT22;2227;47.810;8.810;2023-01-16T11:55:47;5.20;99.90
4429;DHT22;2227;47.810;8.810;2023-01-16T12:01:26;5.30;99.90
4429;DHT22;2227;47.810;8.810;2023-01-16T12:04:23;5.40;99.90
4429;DHT22;2227;47.810;8.810;2023-01-16T12:07:14;5.30;99.90
4429;DHT22;2227;47.810;8.810;2023-01-16T12:12:34;5.20;99.90
4429;DHT22;2227;47.810;8.810;2023-01-16T12:21:26;4.80;99.90
4429;DHT22;2227;47.810;8.810;2023-01-16T12:26:34;4.40;99.90
4429;DHT22;2227;47.810;8.810;2023-01-16T12:34:19;4.40;99.90
4429;DHT22;2227;47.810;8.810;2023-01-16T12:37:51;4.10;99.90
4429;DHT22;2227;47.810;8.810;2023-01-16T12:57:03;4.50;99.90
4429;DHT22;2227;47.810;8.810;2023-01-16T13:00:10;4.70;99.90
4429;DHT22;2227;47.810;8.810;2023-01-16T13:02:52;4.80;99.90
4429;DHT22;2227;47.810;8.810;2023-01-16T13:05:23;4.90;99.90
4429;DHT22;2227;47.810;8.810;2023-01-16T13:07:56;5.00;99.90
4429;DHT22;2227;47.810;8.810;2023-01-16T13:10:35;5.40;99.90
4429;DHT22;2227;47.810;8.810;2023-01-16T13:13:36;5.60;99.90
4429;DHT22;2227;47.810;8.810;2023-01-16T13:16:16;5.70;99.90
4429;DHT22;2227;47.810;8.810;2023-01-16T13:18:56;5.80;99.90
4429;DHT22;2227;47.810;8.810;2023-01-16T13:21:52;5.90;99.90
4429;DHT22;2227;47.810;8.810;2023-01-16T13:24:18;5.90;99.90
4429;DHT22;2227;47.810;8.810;2023-01-16T13:26:52;5.90;99.90
4429;DHT22;2227;47.810;8.810;2023-01-16T13:29:37;5.80;99.90
4429;DHT22;2227;47.810;8.810;2023-01-16T13:32:27;5.40;99.90
4429;DHT22;2227;47.810;8.810;2023-01-16T13:35:10;5.50;99.90
4429;DHT22;2227;47.810;8.810;2023-01-16T13:43:00;5.70;99.90
4429;DHT22;2227;47.810;8.810;2023-01-16T13:45:51;5.60;99.90
4429;DHT22;2227;47.810;8.810;2023-01-16T13:48:20;5.30;99.90
4429;DHT22;2227;47.810;8.810;2023-01-16T13:51:02;5.30;99.90
4429;DHT22;2227;47.810;8.810;2023-01-16T13:53:31;5.40;99.90
4429;DHT22;2227;47.810;8.810;2023-01-16T13:56:13;5.50;99.90
4429;DHT22;2227;47.810;8.810;2023-01-16T13:58:44;5.50;99.90
4429;DHT22;2227;47.810;8.810;2023-01-16T14:01:34;5.60;99.90
4429;DHT22;2227;47.810;8.810;2023-01-16T14:06:54;5.30;99.90
4429;DHT22;2227;47.810;8.810;2023-01-16T14:18:58;5.20;99.90
4429;DHT22;2227;47.810;8.810;2023-01-16T14:24:06;5.40;99.90
4429;DHT22;2227;47.810;8.810;2023-01-16T14:29:19;5.30;99.90
4429;DHT22;2227;47.810;8.810;2023-01-16T14:32:01;5.20;99.90
4429;DHT22;2227;47.810;8.810;2023-01-16T14:37:42;5.10;99.90
4429;DHT22;2227;47.810;8.810;2023-01-16T14:42:36;5.10;99.90
4429;DHT22;2227;47.810;8.810;2023-01-16T14:45:30;5.20;99.90
4429;DHT22;2227;47.810;8.810;2023-01-16T14:48:35;5.30;99.90
4429;DHT22;2227;47.810;8.810;2023-01-16T14:54:30;5.10;99.90
4429;DHT22;2227;47.810;8.810;2023-01-16T14:57:19;5.10;99.90
4429;DHT22;2227;47.810;8.810;2023-01-16T15:00:08;5.40;99.90
4429;DHT22;2227;47.810;8.810;2023-01-16T15:02:43;5.60;99.90
4429;DHT22;2227;47.810;8.810;2023-01-16T15:05:17;5.70;99.90
4429;DHT22;2227;47.810;8.810;2023-01-16T15:07:50;5.50;99.90
4429;DHT22;2227;47.810;8.810;2023-01-16T15:10:36;5.40;99.90
4429;DHT22;2227;47.810;8.810;2023-01-16T15:13:24;5.50;99.90
4429;DHT22;2227;47.810;8.810;2023-01-16T15:16:02;5.50;99.90
4429;DHT22;2227;47.810;8.810;2023-01-16T15:18:30;5.40;99.90
4429;DHT22;2227;47.810;8.810;2023-01-16T15:21:17;5.50;99.90
4429;DHT22;2227;47.810;8.810;2023-01-16T15:24:04;5.60;99.90
4429;DHT22;2227;47.810;8.810;2023-01-16T15:29:36;5.70;99.90
4429;DHT22;2227;47.810;8.810;2023-01-16T15:32:13;5.80;99.90
4429;DHT22;2227;47.810;8.810;2023-01-16T15:34:44;5.80;99.90
4429;DHT22;2227;47.810;8.810;2023-01-16T15:37:21;5.80;99.90
4429;DHT22;2227;47.810;8.810;2023-01-16T15:39:48;6.00;99.90
4429;DHT22;2227;47.810;8.810;2023-01-16T15:42:20;5.60;99.90
4429;DHT22;2227;47.810;8.810;2023-01-16T15:45:25;5.50;99.90
4429;DHT22;2227;47.810;8.810;2023-01-16T15:48:31;5.50;99.90
4429;DHT22;2227;47.810;8.810;2023-01-16T15:51:06;5.60;99.90
4429;DHT22;2227;47.810;8.810;2023-01-16T15:53:37;5.60;99.90
4429;DHT22;2227;47.810;8.810;2023-01-16T15:56:23;5.50;99.90
4429;DHT22;2227;47.810;8.810;2023-01-16T15:58:52;5.50;99.90
4429;DHT22;2227;47.810;8.810;2023-01-16T16:01:39;5.40;99.90
4429;DHT22;2227;47.810;8.810;2023-01-16T16:04:05;5.40;99.90
4429;DHT22;2227;47.810;8.810;2023-01-16T16:06:33;5.40;99.90
4429;DHT22;2227;47.810;8.810;2023-01-16T16:09:05;5.40;99.90
4429;DHT22;2227;47.810;8.810;2023-01-16T16:11:33;5.40;99.90
4429;DHT22;2227;47.810;8.810;2023-01-16T16:14:32;5.50;99.90
4429;DHT22;2227;47.810;8.810;2023-01-16T16:17:26;5.60;99.90
4429;DHT22;2227;47.810;8.810;2023-01-16T16:23:11;5.40;99.90
4429;DHT22;2227;47.810;8.810;2023-01-16T16:31:23;5.20;99.90
4429;DHT22;2227;47.810;8.810;2023-01-16T16:36:43;5.40;99.90
4429;DHT22;2227;47.810;8.810;2023-01-16T16:47:36;5.00;99.90
4429;DHT22;2227;47.810;8.810;2023-01-16T16:50:33;5.00;99.90
4429;DHT22;2227;47.810;8.810;2023-01-16T16:53:14;5.00;99.90
4429;DHT22;2227;47.810;8.810;2023-01-16T16:55:53;5.10;99.90
4429;DHT22;2227;47.810;8.810;2023-01-16T16:58:23;4.80;99.90
4429;DHT22;2227;47.810;8.810;2023-01-16T17:00:52;4.40;99.90
4429;DHT22;2227;47.810;8.810;2023-01-16T17:03:24;3.90;99.90
4429;DHT22;2227;47.810;8.810;2023-01-16T17:05:52;3.80;99.90
4429;DHT22;2227;47.810;8.810;2023-01-16T17:08:20;3.80;99.90
4429;DHT22;2227;47.810;8.810;2023-01-16T17:10:47;3.90;99.90
4429;DHT22;2227;47.810;8.810;2023-01-16T17:13:18;4.00;99.90
4429;DHT22;2227;47.810;8.810;2023-01-16T17:15:47;4.10;99.90
4429;DHT22;2227;47.810;8.810;2023-01-16T17:18:16;4.10;99.90
4429;DHT22;2227;47.810;8.810;2023-01-16T17:20:43;4.10;99.90
4429;DHT22;2227;47.810;8.810;2023-01-16T17:23:14;4.10;99.90
4429;DHT22;2227;47.810;8.810;2023-01-16T17:25:42;4.20;99.90
4429;DHT22;2227;47.810;8.810;2023-01-16T17:28:10;4.20;99.90
4429;DHT22;2227;47.810;8.810;2023-01-16T17:30:37;4.20;99.90
4429;DHT22;2227;47.810;8.810;2023-01-16T17:33:06;4.20;99.90
4429;DHT22;2227;47.810;8.810;2023-01-16T17:35:38;4.10;99.90
4429;DHT22;2227;47.810;8.810;2023-01-16T17:38:12;4.10;99.90
4429;DHT22;2227;47.810;8.810;2023-01-16T17:40:39;4.10;99.90
4429;DHT22;2227;47.810;8.810;2023-01-16T17:43:19;4.10;99.90
4429;DHT22;2227;47.810;8.810;2023-01-16T17:46:09;4.00;99.90
4429;DHT22;2227;47.810;8.810;2023-01-16T17:48:36;4.00;99.90
4429;DHT22;2227;47.810;8.810;2023-01-16T17:51:03;4.10;99.90
4429;DHT22;2227;47.810;8.810;2023-01-16T17:53:31;4.10;99.90
4429;DHT22;2227;47.810;8.810;2023-01-16T17:56:00;4.10;99.90
4429;DHT22;2227;47.810;8.810;2023-01-16T17:58:33;4.10;99.90
4429;DHT22;2227;47.810;8.810;2023-01-16T18:01:17;4.20;99.90
4429;DHT22;2227;47.810;8.810;2023-01-16T18:03:46;4.40;99.90
4429;DHT22;2227;47.810;8.810;2023-01-16T18:06:22;4.60;99.90
4429;DHT22;2227;47.810;8.810;2023-01-16T18:08:51;4.80;99.90
4429;DHT22;2227;47.810;8.810;2023-01-16T18:11:18;4.80;99.90
4429;DHT22;2227;47.810;8.810;2023-01-16T18:14:04;4.60;99.90
4429;DHT22;2227;47.810;8.810;2023-01-16T18:16:50;4.90;99.90
4429;DHT22;2227;47.810;8.810;2023-01-16T18:19:35;5.10;99.90
4429;DHT22;2227;47.810;8.810;2023-01-16T18:22:02;5.20;99.90
4429;DHT22;2227;47.810;8.810;2023-01-16T18:24:41;5.00;99.90
4429;DHT22;2227;47.810;8.810;2023-01-16T18:27:10;5.00;99.90
4429;DHT22;2227;47.810;8.810;2023-01-16T18:29:38;4.90;99.90
4429;DHT22;2227;47.810;8.810;2023-01-16T18:32:06;4.90;99.90
4429;DHT22;2227;47.810;8.810;2023-01-16T18:37:44;4.90;99.90
4429;DHT22;2227;47.810;8.810;2023-01-16T18:40:30;4.90;99.90
4429;DHT22;2227;47.810;8.810;2023-01-16T18:43:16;4.90;99.90
4429;DHT22;2227;47.810;8.810;2023-01-16T18:46:02;5.10;99.90
4429;DHT22;2227;47.810;8.810;2023-01-16T18:48:48;5.00;99.90
4429;DHT22;2227;47.810;8.810;2023-01-16T18:51:33;5.00;99.90
4429;DHT22;2227;47.810;8.810;2023-01-16T18:54:20;5.00;99.90
4429;DHT22;2227;47.810;8.810;2023-01-16T18:57:13;5.20;99.90
4429;DHT22;2227;47.810;8.810;2023-01-16T18:59:59;5.40;99.90
4429;DHT22;2227;47.810;8.810;2023-01-16T19:02:49;5.40;99.90
4429;DHT22;2227;47.810;8.810;2023-01-16T19:05:18;5.30;99.90
4429;DHT22;2227;47.810;8.810;2023-01-16T19:07:47;5.30;99.90
4429;DHT22;2227;47.810;8.810;2023-01-16T19:10:21;5.20;99.90
4429;DHT22;2227;47.810;8.810;2023-01-16T19:12:50;5.40;99.90
4429;DHT22;2227;47.810;8.810;2023-01-16T19:15:18;5.20;99.90
4429;DHT22;2227;47.810;8.810;2023-01-16T19:17:46;5.10;99.90
4429;DHT22;2227;47.810;8.810;2023-01-16T19:20:13;5.00;99.90
4429;DHT22;2227;47.810;8.810;2023-01-16T19:22:45;4.90;99.90
4429;DHT22;2227;47.810;8.810;2023-01-16T19:25:13;5.00;99.90
4429;DHT22;2227;47.810;8.810;2023-01-16T19:27:39;4.90;99.90
4429;DHT22;2227;47.810;8.810;2023-01-16T19:30:06;4.90;99.90
4429;DHT22;2227;47.810;8.810;2023-01-16T19:32:34;4.80;99.90
4429;DHT22;2227;47.810;8.810;2023-01-16T19:35:00;4.70;99.90
4429;DHT22;2227;47.810;8.810;2023-01-16T19:37:27;4.60;99.90
4429;DHT22;2227;47.810;8.810;2023-01-16T19:39:55;4.50;99.90
4429;DHT22;2227;47.810;8.810;2023-01-16T19:42:25;4.50;99.90
4429;DHT22;2227;47.810;8.810;2023-01-16T19:45:11;4.70;99.90
4429;DHT22;2227;47.810;8.810;2023-01-16T19:47:56;4.60;99.90
4429;DHT22;2227;47.810;8.810;2023-01-16T19:50:23;4.70;99.90
4429;DHT22;2227;47.810;8.810;2023-01-16T19:52:50;4.80;99.90
4429;DHT22;2227;47.810;8.810;2023-01-16T19:55:16;4.50;99.90
4429;DHT22;2227;47.810;8.810;2023-01-16T19:57:44;4.20;99.90
4429;DHT22;2227;47.810;8.810;2023-01-16T20:00:11;3.90;99.90
4429;DHT22;2227;47.810;8.810;2023-01-16T20:02:38;3.70;99.90
4429;DHT22;2227;47.810;8.810;2023-01-16T20:05:05;3.70;99.90
4429;DHT22;2227;47.810;8.810;2023-01-16T20:07:32;3.70;99.90
4429;DHT22;2227;47.810;8.810;2023-01-16T20:09:59;3.70;99.90
4429;DHT22;2227;47.810;8.810;2023-01-16T20:12:26;3.60;99.90
4429;DHT22;2227;47.810;8.810;2023-01-16T20:14:59;3.50;99.90
4429;DHT22;2227;47.810;8.810;2023-01-16T20:17:28;3.50;99.90
4429;DHT22;2227;47.810;8.810;2023-01-16T20:19:55;3.60;99.90
4429;DHT22;2227;47.810;8.810;2023-01-16T20:22:23;3.50;99.90
4429;DHT22;2227;47.810;8.810;2023-01-16T20:25:03;3.40;99.90
4429;DHT22;2227;47.810;8.810;2023-01-16T20:27:30;3.30;99.90
4429;DHT22;2227;47.810;8.810;2023-01-16T20:29:58;3.20;99.90
4429;DHT22;2227;47.810;8.810;2023-01-16T20:32:25;3.10;99.90
4429;DHT22;2227;47.810;8.810;2023-01-16T20:34:52;3.20;99.90
4429;DHT22;2227;47.810;8.810;2023-01-16T20:37:21;3.10;99.90
4429;DHT22;2227;47.810;8.810;2023-01-16T20:39:48;3.10;99.90
4429;DHT22;2227;47.810;8.810;2023-01-16T20:42:15;3.10;99.90
4429;DHT22;2227;47.810;8.810;2023-01-16T20:45:00;3.00;99.90
4429;DHT22;2227;47.810;8.810;2023-01-16T20:47:46;3.10;99.90
4429;DHT22;2227;47.810;8.810;2023-01-16T20:50:13;3.00;99.90
4429;DHT22;2227;47.810;8.810;2023-01-16T20:52:40;3.00;99.90
4429;DHT22;2227;47.810;8.810;2023-01-16T20:55:07;3.10;99.90
4429;DHT22;2227;47.810;8.810;2023-01-16T20:57:34;3.20;99.90
4429;DHT22;2227;47.810;8.810;2023-01-16T21:00:01;3.30;99.90
4429;DHT22;2227;47.810;8.810;2023-01-16T21:02:27;3.30;99.90
4429;DHT22;2227;47.810;8.810;2023-01-16T21:04:54;3.20;99.90
4429;DHT22;2227;47.810;8.810;2023-01-16T21:07:21;3.10;99.90
4429;DHT22;2227;47.810;8.810;2023-01-16T21:09:47;3.10;99.90
4429;DHT22;2227;47.810;8.810;2023-01-16T21:12:14;3.10;99.90
4429;DHT22;2227;47.810;8.810;2023-01-16T21:15:00;3.20;99.90
4429;DHT22;2227;47.810;8.810;2023-01-16T21:17:26;3.10;99.90
4429;DHT22;2227;47.810;8.810;2023-01-16T21:20:11;3.00;99.90
4429;DHT22;2227;47.810;8.810;2023-01-16T21:22:57;2.90;99.90
4429;DHT22;2227;47.810;8.810;2023-01-16T21:25:24;2.80;99.90
4429;DHT22;2227;47.810;8.810;2023-01-16T21:27:51;2.90;99.90
4429;DHT22;2227;47.810;8.810;2023-01-16T21:30:18;2.80;99.90
4429;DHT22;2227;47.810;8.810;2023-01-16T21:32:46;2.80;99.90
4429;DHT22;2227;47.810;8.810;2023-01-16T21:35:14;2.80;99.90
4429;DHT22;2227;47.810;8.810;2023-01-16T21:37:41;2.70;99.90
4429;DHT22;2227;47.810;8.810;2023-01-16T21:40:12;2.80;99.90
4429;DHT22;2227;47.810;8.810;2023-01-16T21:42:39;2.80;99.90
4429;DHT22;2227;47.810;8.810;2023-01-16T21:45:25;2.90;99.90
4429;DHT22;2227;47.810;8.810;2023-01-16T21:48:13;2.80;99.90
4429;DHT22;2227;47.810;8.810;2023-01-16T21:50:41;2.80;99.90
4429;DHT22;2227;47.810;8.810;2023-01-16T21:53:12;2.70;99.90
4429;DHT22;2227;47.810;8.810;2023-01-16T21:55:39;2.70;99.90
4429;DHT22;2227;47.810;8.810;2023-01-16T21:58:08;2.80;99.90
4429;DHT22;2227;47.810;8.810;2023-01-16T22:00:35;3.00;99.90
4429;DHT22;2227;47.810;8.810;2023-01-16T22:03:03;2.80;99.90
4429;DHT22;2227;47.810;8.810;2023-01-16T22:05:30;2.80;99.90
4429;DHT22;2227;47.810;8.810;2023-01-16T22:07:59;2.80;99.90
4429;DHT22;2227;47.810;8.810;2023-01-16T22:10:25;2.70;99.90
4429;DHT22;2227;47.810;8.810;2023-01-16T22:12:52;2.70;99.90
4429;DHT22;2227;47.810;8.810;2023-01-16T22:15:39;2.70;99.90
4429;DHT22;2227;47.810;8.810;2023-01-16T22:18:25;2.60;99.90
4429;DHT22;2227;47.810;8.810;2023-01-16T22:20:53;2.70;99.90
4429;DHT22;2227;47.810;8.810;2023-01-16T22:23:29;2.70;99.90
4429;DHT22;2227;47.810;8.810;2023-01-16T22:25:59;2.80;99.90
4429;DHT22;2227;47.810;8.810;2023-01-16T22:28:26;2.90;99.90
4429;DHT22;2227;47.810;8.810;2023-01-16T22:30:56;3.10;99.90
4429;DHT22;2227;47.810;8.810;2023-01-16T22:33:25;3.10;99.90
4429;DHT22;2227;47.810;8.810;2023-01-16T22:35:57;3.30;99.90
4429;DHT22;2227;47.810;8.810;2023-01-16T22:38:24;3.30;99.90
4429;DHT22;2227;47.810;8.810;2023-01-16T22:40:51;3.30;99.90
4429;DHT22;2227;47.810;8.810;2023-01-16T22:43:18;3.00;99.90
4429;DHT22;2227;47.810;8.810;2023-01-16T22:46:03;2.90;99.90
4429;DHT22;2227;47.810;8.810;2023-01-16T22:48:56;3.20;99.90
4429;DHT22;2227;47.810;8.810;2023-01-16T22:51:23;3.30;99.90
4429;DHT22;2227;47.810;8.810;2023-01-16T22:53:51;3.40;99.90
4429;DHT22;2227;47.810;8.810;2023-01-16T22:56:18;3.50;99.90
4429;DHT22;2227;47.810;8.810;2023-01-16T22:58:45;3.60;99.90
4429;DHT22;2227;47.810;8.810;2023-01-16T23:01:16;3.40;99.90
4429;DHT22;2227;47.810;8.810;2023-01-16T23:03:44;3.40;99.90
4429;DHT22;2227;47.810;8.810;2023-01-16T23:06:11;3.30;99.90
4429;DHT22;2227;47.810;8.810;2023-01-16T23:08:39;3.20;99.90
4429;DHT22;2227;47.810;8.810;2023-01-16T23:13:49;3.50;99.90
4429;DHT22;2227;47.810;8.810;2023-01-16T23:16:15;3.50;99.90
4429;DHT22;2227;47.810;8.810;2023-01-16T23:18:43;3.40;99.90
4429;DHT22;2227;47.810;8.810;2023-01-16T23:21:10;3.50;99.90
4429;DHT22;2227;47.810;8.810;2023-01-16T23:23:36;3.40;99.90
4429;DHT22;2227;47.810;8.810;2023-01-16T23:26:08;3.30;99.90
4429;DHT22;2227;47.810;8.810;2023-01-16T23:28:36;3.10;99.90
4429;DHT22;2227;47.810;8.810;2023-01-16T23:31:08;3.40;99.90
4429;DHT22;2227;47.810;8.810;2023-01-16T23:33:35;3.20;99.90
4429;DHT22;2227;47.810;8.810;2023-01-16T23:36:13;3.30;99.90